Time;durP1;ratioP1;P1;durP2;ratioP2;P2;SDS_P1;SDS_P2;PMS_P1;PMS_P2;Temp;Humidity;BMP_temperature;BMP_pressure;BME280_temperature;BME280_humidity;BME280_pressure;Samples;Min_cycle;Max_cycle;Signal;HPM_P1;HPM_P2
2021/12/21 00:02:04;;;;;;;2.80;2.60;;;;;;;20.16;39.05;99787.66;1846881;76;28341;-63
2021/12/21 00:04:53;;;;;;;2.70;2.50;;;;;;;20.17;39.09;99789.31;1857143;76;32126;-60
2021/12/21 00:07:42;;;;;;;2.72;2.50;;;;;;;20.13;39.10;99792.67;1854703;77;28238;-60
2021/12/21 00:10:34;;;;;;;3.00;2.52;;;;;;;20.15;39.11;99784.60;1830546;77;28745;-61
2021/12/21 00:13:41;;;;;;;2.77;2.42;;;;;;;20.14;39.11;99780.73;1801469;79;28260;-60
2021/12/21 00:16:28;;;;;;;4.30;2.47;;;;;;;20.15;39.08;99781.03;1854740;77;28256;-60
2021/12/21 00:19:25;;;;;;;4.58;2.47;;;;;;;20.13;39.02;99775.80;1844378;77;28296;-60
2021/12/21 00:22:05;;;;;;;3.40;2.62;;;;;;;20.12;39.05;99782.28;1844003;76;28252;-60
2021/12/21 00:24:48;;;;;;;2.47;2.30;;;;;;;20.12;39.13;99775.47;1852057;77;28177;-60
2021/12/21 00:27:37;;;;;;;6.10;2.50;;;;;;;20.12;39.09;99778.75;1849861;77;28200;-61
2021/12/21 00:30:25;;;;;;;2.62;2.42;;;;;;;20.14;39.01;99773.91;1869010;76;28371;-60
2021/12/21 00:33:14;;;;;;;2.80;2.40;;;;;;;20.13;39.02;99768.98;1858917;75;28252;-60
2021/12/21 00:36:02;;;;;;;2.30;2.20;;;;;;;20.17;39.00;99777.56;1858221;76;28403;-62
2021/12/21 07:29:49;;;;;;;7.20;2.30;;;;;;;15.26;48.80;99763.67;1932583;72;27956;-66
2021/12/21 07:32:38;;;;;;;5.55;2.25;;;;;;;15.72;48.21;99761.28;1891185;75;28138;-64
2021/12/21 07:35:26;;;;;;;5.73;2.20;;;;;;;16.56;46.97;99754.97;1888660;75;28080;-65
2021/12/21 07:38:15;;;;;;;2.77;2.20;;;;;;;17.19;45.85;99763.75;1888872;75;28294;-65
2021/12/21 07:41:04;;;;;;;2.15;1.90;;;;;;;17.69;44.80;99758.70;1890596;75;28174;-65
2021/12/21 07:43:53;;;;;;;4.17;2.20;;;;;;;18.09;43.92;99761.20;1889270;75;28100;-65
2021/12/21 07:46:43;;;;;;;2.37;2.17;;;;;;;18.43;43.17;99763.95;1884556;75;28277;-65
2021/12/21 07:49:32;;;;;;;2.90;1.98;;;;;;;18.70;42.55;99764.93;1881704;75;28118;-65
2021/12/21 07:52:22;;;;;;;4.10;2.10;;;;;;;18.91;41.96;99765.33;1879958;75;28149;-65
2021/12/21 07:55:11;;;;;;;3.00;2.33;;;;;;;19.08;41.55;99769.38;1878930;75;28505;-66
2021/12/21 07:58:00;;;;;;;2.00;1.87;;;;;;;19.20;41.24;99769.95;1894942;75;28170;-66
2021/12/21 08:00:48;;;;;;;2.33;2.10;;;;;;;19.31;40.91;99774.78;1902057;75;28100;-66
2021/12/21 08:03:38;;;;;;;4.37;2.20;;;;;;;19.41;40.64;99779.86;1897298;75;28139;-66
2021/12/21 08:06:30;;;;;;;2.40;2.05;;;;;;;19.47;40.39;99782.27;1880330;75;28152;-66
2021/12/21 08:09:17;;;;;;;2.10;1.90;;;;;;;19.54;40.27;99780.39;1885241;75;28187;-66
2021/12/21 08:15:03;;;;;;;2.35;2.15;;;;;;;19.65;39.98;99779.80;1891323;75;28161;-65
2021/12/21 08:17:52;;;;;;;2.75;1.90;;;;;;;19.69;39.85;99789.23;1891239;75;28075;-66
2021/12/21 08:20:41;;;;;;;1.95;1.77;;;;;;;19.71;39.74;99790.70;1886700;75;28051;-67
2021/12/21 08:23:30;;;;;;;2.20;2.00;;;;;;;19.79;39.61;99789.66;1881209;75;28065;-66
2021/12/21 08:26:19;;;;;;;2.05;1.87;;;;;;;19.79;39.51;99791.02;1885605;75;28172;-65
2021/12/21 08:29:27;;;;;;;2.35;2.15;;;;;;;19.82;39.47;99794.67;1878631;74;28133;-65
2021/12/21 08:32:15;;;;;;;2.17;1.90;;;;;;;19.81;39.40;99794.38;1897595;74;28266;-65
2021/12/21 08:35:05;;;;;;;1.95;1.75;;;;;;;19.83;39.30;99800.45;1898600;74;28136;-65
2021/12/21 08:38:00;;;;;;;3.90;1.80;;;;;;;19.85;39.20;99799.20;1892889;74;28175;-67
2021/12/21 08:40:48;;;;;;;2.30;1.72;;;;;;;19.88;39.14;99804.20;1906529;74;28102;-66
2021/12/21 08:43:36;;;;;;;2.17;1.95;;;;;;;19.90;39.10;99806.75;1897650;74;28306;-64
2021/12/21 08:46:24;;;;;;;1.75;1.65;;;;;;;19.91;39.02;99798.86;1897943;74;28171;-65
2021/12/21 08:49:12;;;;;;;2.07;1.80;;;;;;;19.89;38.98;99804.54;1894992;74;28139;-65
2021/12/21 08:52:01;;;;;;;2.60;2.30;;;;;;;19.93;38.96;99806.30;1895011;74;28104;-66
2021/12/21 08:54:50;;;;;;;2.08;1.98;;;;;;;19.94;38.87;99803.91;1903013;74;28051;-64
2021/12/21 08:57:40;;;;;;;2.40;2.12;;;;;;;19.96;38.85;99805.38;1909828;74;28194;-66
2021/12/21 09:00:29;;;;;;;2.30;1.90;;;;;;;19.95;38.84;99813.78;1839122;77;28226;-66
2021/12/21 09:03:17;;;;;;;2.00;1.90;;;;;;;19.98;38.80;99810.61;1831902;77;28292;-65
2021/12/21 09:06:06;;;;;;;1.90;1.80;;;;;;;19.95;38.80;99817.87;1827019;77;28407;-65
2021/12/21 09:08:56;;;;;;;1.95;1.82;;;;;;;19.96;38.73;99818.16;1845959;77;28296;-66
2021/12/21 09:11:45;;;;;;;2.10;1.80;;;;;;;19.97;38.75;99811.67;1868551;76;28069;-66
2021/12/21 09:14:35;;;;;;;3.33;2.20;;;;;;;19.95;38.71;99807.77;1834282;77;28524;-65
2021/12/21 09:17:27;;;;;;;2.27;2.08;;;;;;;19.95;38.71;99816.50;1844197;77;28244;-66
2021/12/21 09:20:19;;;;;;;2.50;1.90;;;;;;;19.94;38.70;99811.56;1831405;77;28328;-67
2021/12/21 09:23:09;;;;;;;3.08;2.00;;;;;;;19.97;38.64;99813.89;1833911;77;28340;-65
2021/12/21 09:25:58;;;;;;;5.60;1.90;;;;;;;19.96;38.67;99823.62;1845496;76;28658;-66
2021/12/21 09:28:47;;;;;;;4.60;2.30;;;;;;;19.96;38.69;99823.62;1841495;77;28347;-66
2021/12/21 09:31:37;;;;;;;4.50;2.20;;;;;;;19.96;38.60;99826.34;1895486;74;28527;-66
2021/12/21 09:34:25;;;;;;;2.45;2.10;;;;;;;19.96;38.59;99832.64;1895163;74;28128;-65
2021/12/21 09:37:17;;;;;;;5.12;2.37;;;;;;;19.97;38.64;99833.48;1917159;74;28082;-65
2021/12/21 09:40:08;;;;;;;2.20;2.00;;;;;;;19.98;38.59;99833.78;1884682;75;37378;-65
2021/12/21 09:42:59;;;;;;;2.85;2.10;;;;;;;19.95;38.60;99838.31;1917523;74;28129;-67
2021/12/21 09:45:48;;;;;;;4.80;2.10;;;;;;;19.97;38.55;99831.61;1895741;74;28142;-67
2021/12/21 09:48:37;;;;;;;3.62;2.00;;;;;;;19.96;38.60;99839.98;1895771;74;28518;-66
2021/12/21 09:51:28;;;;;;;3.60;2.33;;;;;;;19.98;38.55;99838.72;1884479;75;28282;-66
2021/12/21 09:54:19;;;;;;;4.37;2.30;;;;;;;19.99;38.55;99841.78;1906402;74;28132;-66
2021/12/21 09:57:09;;;;;;;3.97;2.10;;;;;;;20.00;38.49;99837.98;1906425;74;28261;-65
2021/12/21 09:59:58;;;;;;;3.47;2.40;;;;;;;20.00;38.49;99837.98;1906213;74;28030;-66
2021/12/21 10:02:47;;;;;;;5.00;2.10;;;;;;;20.02;38.46;99844.61;1906172;74;28160;-65
2021/12/21 10:05:39;;;;;;;6.47;2.30;;;;;;;20.01;38.46;99836.11;1907597;74;38481;-65
2021/12/21 10:08:30;;;;;;;5.17;2.40;;;;;;;20.03;38.41;99841.34;1906403;74;28077;-66
2021/12/21 10:11:21;;;;;;;4.83;2.40;;;;;;;19.99;38.46;99835.48;1884483;75;28164;-67
2021/12/21 10:14:09;;;;;;;2.98;2.30;;;;;;;20.01;38.44;99833.37;1900336;74;28102;-66
2021/12/21 10:17:15;;;;;;;6.10;2.60;;;;;;;20.00;38.49;99840.71;1898127;74;28070;-65
2021/12/21 10:20:09;;;;;;;4.22;2.02;;;;;;;19.98;38.47;99842.81;1887156;74;28207;-65
2021/12/21 10:22:58;;;;;;;2.77;2.12;;;;;;;19.97;38.51;99844.39;1906567;74;28121;-65
2021/12/21 10:25:55;;;;;;;5.78;2.22;;;;;;;20.03;38.45;99842.70;1897657;74;30201;-66
2021/12/21 10:28:47;;;;;;;6.17;2.15;;;;;;;19.98;38.43;99833.27;1900393;74;28122;-65
2021/12/21 10:31:41;;;;;;;2.72;2.37;;;;;;;20.01;38.38;99833.37;1895213;74;28478;-66
2021/12/21 10:34:30;;;;;;;3.70;2.42;;;;;;;20.04;38.38;99832.97;1894769;74;28659;-67
2021/12/21 10:37:31;;;;;;;3.72;2.20;;;;;;;19.99;38.43;99831.39;1895230;74;28169;-66
2021/12/21 10:40:25;;;;;;;4.95;2.10;;;;;;;20.03;38.43;99830.43;1898578;74;28124;-66
2021/12/21 10:43:13;;;;;;;5.03;2.42;;;;;;;19.99;38.40;99821.33;1898574;74;28035;-66
2021/12/21 10:46:03;;;;;;;3.83;2.30;;;;;;;20.00;38.39;99820.27;1895409;74;28187;-66
2021/12/21 10:48:51;;;;;;;6.37;2.60;;;;;;;20.00;38.40;99816.69;1906423;74;28183;-66
2021/12/21 10:51:57;;;;;;;6.13;2.43;;;;;;;20.04;38.39;99813.03;1901343;74;28112;-66
2021/12/21 10:54:49;;;;;;;3.90;2.12;;;;;;;20.04;38.36;99803.48;1900959;74;28054;-66
2021/12/21 10:57:37;;;;;;;4.28;2.45;;;;;;;19.99;38.38;99806.84;1893455;74;28160;-68
2021/12/21 11:00:25;;;;;;;3.67;2.40;;;;;;;20.01;38.35;99810.20;1884612;75;28298;-65
2021/12/21 11:03:21;;;;;;;3.70;2.10;;;;;;;20.03;38.34;99802.64;1884671;75;28172;-68
2021/12/21 11:06:12;;;;;;;2.40;2.20;;;;;;;20.04;38.32;99798.03;1900435;74;28175;-66
2021/12/21 11:09:04;;;;;;;4.22;2.45;;;;;;;20.05;38.28;99792.36;1895971;74;28072;-66
2021/12/21 11:11:54;;;;;;;2.50;2.20;;;;;;;20.04;38.29;99789.34;1911843;74;28581;-65
2021/12/21 11:14:42;;;;;;;3.02;2.15;;;;;;;20.05;38.25;99784.18;1906335;74;28544;-66
2021/12/21 11:17:31;;;;;;;3.25;2.40;;;;;;;20.04;38.28;99786.61;1901434;74;28068;-66
2021/12/21 11:20:19;;;;;;;3.67;2.50;;;;;;;20.04;38.29;99778.43;1895221;74;28088;-65
2021/12/21 11:23:08;;;;;;;5.10;2.20;;;;;;;20.06;38.27;99779.57;1890405;74;28165;-67
2021/12/21 11:25:58;;;;;;;3.60;2.60;;;;;;;20.04;38.22;99771.61;1811099;77;28214;-65
2021/12/21 11:28:49;;;;;;;5.20;2.45;;;;;;;20.05;38.26;99771.91;1839115;77;28243;-65
2021/12/21 11:31:40;;;;;;;3.62;2.45;;;;;;;20.04;38.27;99770.25;1824685;77;28285;-66
2021/12/21 11:34:31;;;;;;;2.83;2.25;;;;;;;20.04;38.29;99760.70;1838873;76;28145;-68
2021/12/21 11:37:22;;;;;;;3.30;2.55;;;;;;;20.08;38.16;99755.66;1880039;75;28117;-68
2021/12/21 11:40:13;;;;;;;2.95;2.20;;;;;;;20.04;38.20;99751.68;1884588;75;28163;-65
2021/12/21 11:43:32;;;;;;;5.80;2.40;;;;;;;20.05;38.19;99747.92;1894900;75;28149;-66
2021/12/21 11:46:25;;;;;;;3.47;2.40;;;;;;;20.04;38.17;99740.25;1891479;75;27992;-67
2021/12/21 11:49:16;;;;;;;5.62;2.60;;;;;;;20.00;38.20;99736.25;1876892;75;28026;-65
2021/12/21 11:52:14;;;;;;;4.40;2.27;;;;;;;20.00;38.21;99734.37;1888330;75;28578;-66
2021/12/21 11:55:08;;;;;;;4.53;2.47;;;;;;;20.05;38.25;99723.38;1890285;75;28086;-65
2021/12/21 11:58:00;;;;;;;4.47;2.25;;;;;;;20.02;38.20;99721.91;1885353;75;28091;-65
2021/12/21 12:00:52;;;;;;;4.40;2.40;;;;;;;20.04;38.14;99723.89;1890002;75;28211;-66
2021/12/21 12:03:46;;;;;;;4.97;2.62;;;;;;;20.04;38.13;99718.96;1890681;75;28165;-65
2021/12/21 12:06:49;;;;;;;3.83;2.53;;;;;;;20.02;38.18;99726.52;1888194;75;28168;-65
2021/12/21 12:09:37;;;;;;;3.90;2.10;;;;;;;20.01;38.17;99718.86;1901336;75;28168;-65
2021/12/21 12:12:28;;;;;;;3.15;2.40;;;;;;;20.04;38.23;99716.23;1869724;75;28195;-65
2021/12/21 12:15:44;;;;;;;4.45;2.33;;;;;;;20.00;38.19;99711.71;1883197;75;28024;-66
2021/12/21 12:18:38;;;;;;;4.92;2.33;;;;;;;19.96;38.22;99705.86;1900669;75;28156;-68
2021/12/21 12:21:29;;;;;;;3.75;2.25;;;;;;;19.99;38.26;99705.97;1875130;75;28428;-67
2021/12/21 12:24:19;;;;;;;4.10;2.40;;;;;;;19.97;38.25;99709.44;1868939;76;28293;-66
2021/12/21 12:27:23;;;;;;;2.85;2.12;;;;;;;19.95;38.27;99706.09;1869063;76;28181;-66
2021/12/21 12:30:16;;;;;;;2.80;2.42;;;;;;;19.98;38.26;99702.91;1877934;75;28058;-65
2021/12/21 12:33:07;;;;;;;4.53;2.40;;;;;;;19.96;38.22;99700.92;1871580;75;28239;-65
2021/12/21 12:35:58;;;;;;;3.47;2.45;;;;;;;19.97;38.21;99695.80;1856861;77;31163;-66
2021/12/21 12:38:48;;;;;;;3.25;2.58;;;;;;;20.01;38.14;99688.86;1874929;75;28200;-65
2021/12/21 12:41:47;;;;;;;3.92;2.50;;;;;;;20.01;38.12;99688.86;1901514;75;28073;-66
2021/12/21 12:44:39;;;;;;;4.37;2.40;;;;;;;20.02;38.11;99689.19;1868252;75;28096;-65
2021/12/21 12:47:27;;;;;;;3.00;2.20;;;;;;;19.98;38.13;99690.13;1895607;75;28178;-67
2021/12/21 12:50:19;;;;;;;2.90;2.42;;;;;;;19.98;38.12;99681.09;1890660;75;28190;-65
2021/12/21 12:53:08;;;;;;;4.42;2.42;;;;;;;19.96;38.16;99681.33;1889322;75;28160;-65
2021/12/21 12:55:58;;;;;;;2.45;2.22;;;;;;;19.97;38.17;99674.83;1890472;75;28157;-65
2021/12/21 12:58:56;;;;;;;5.03;2.23;;;;;;;19.96;38.14;99681.84;1863144;75;28072;-67
2021/12/21 13:01:49;;;;;;;3.42;2.45;;;;;;;19.96;38.17;99669.58;1865449;75;28189;-65
2021/12/21 13:04:39;;;;;;;2.65;2.45;;;;;;;19.93;38.23;99668.63;1888497;75;38376;-65
2021/12/21 13:07:29;;;;;;;2.37;2.17;;;;;;;19.95;38.20;99663.83;1870736;75;28119;-66
2021/12/21 13:10:17;;;;;;;2.95;2.47;;;;;;;19.95;38.13;99661.09;1894057;75;28295;-65
2021/12/21 13:13:06;;;;;;;2.50;2.30;;;;;;;19.94;38.19;99652.59;1878469;75;28119;-66
2021/12/21 13:15:54;;;;;;;2.53;2.30;;;;;;;19.95;38.13;99655.65;1874884;75;28032;-66
2021/12/21 13:18:50;;;;;;;3.35;2.35;;;;;;;19.95;38.16;99648.83;1880981;75;28186;-65
2021/12/21 13:21:51;;;;;;;3.00;2.20;;;;;;;19.94;38.14;99642.53;1881366;75;28187;-68
2021/12/21 13:24:42;;;;;;;3.02;2.37;;;;;;;19.93;38.14;99638.64;1890776;75;28254;-65
2021/12/21 13:27:28;;;;;;;2.33;2.12;;;;;;;19.91;38.16;99633.41;1857515;77;28243;-65
2021/12/21 13:30:20;;;;;;;2.50;2.30;;;;;;;19.90;38.17;99635.00;1872853;75;28079;-65
2021/12/21 13:33:09;;;;;;;3.17;2.67;;;;;;;19.91;38.17;99635.30;1892064;75;28296;-66
2021/12/21 13:36:00;;;;;;;4.25;2.60;;;;;;;19.94;38.11;99636.23;1860624;75;28162;-65
2021/12/21 13:38:48;;;;;;;4.37;2.35;;;;;;;19.93;38.14;99634.55;1869390;75;28163;-66
2021/12/21 13:41:39;;;;;;;2.55;2.33;;;;;;;19.95;38.12;99629.75;1871377;75;28050;-66
2021/12/21 13:44:33;;;;;;;3.75;2.40;;;;;;;19.93;38.08;99634.55;1880228;75;28659;-65
2021/12/21 13:47:24;;;;;;;3.58;2.30;;;;;;;19.92;38.09;99628.28;1878949;75;28090;-65
2021/12/21 13:50:16;;;;;;;2.75;2.40;;;;;;;19.92;38.08;99623.35;1890407;75;28048;-67
2021/12/21 13:53:05;;;;;;;2.52;2.30;;;;;;;19.94;38.06;99625.33;1873576;75;28153;-65
2021/12/21 13:55:54;;;;;;;2.85;2.60;;;;;;;19.91;38.14;99630.69;1867417;75;28029;-65
2021/12/21 13:58:43;;;;;;;4.53;2.55;;;;;;;19.92;38.10;99626.08;1875498;75;28120;-65
2021/12/21 14:01:35;;;;;;;3.87;2.63;;;;;;;19.90;38.10;99615.92;1889148;75;28201;-65
2021/12/21 14:04:37;;;;;;;2.60;2.40;;;;;;;19.89;38.13;99619.68;1871731;75;28034;-66
2021/12/21 14:07:17;;;;;;;2.72;2.50;;;;;;;19.92;38.06;99620.63;1879321;75;28194;-67
2021/12/21 14:10:08;;;;;;;3.75;2.42;;;;;;;19.89;38.12;99612.86;1861496;75;28127;-66
2021/12/21 14:13:00;;;;;;;2.60;2.40;;;;;;;19.87;38.10;99616.33;1901694;75;28042;-67
2021/12/21 14:15:49;;;;;;;3.10;2.50;;;;;;;19.85;38.12;99607.02;1884954;75;28023;-65
2021/12/21 14:18:41;;;;;;;3.00;2.40;;;;;;;19.85;38.15;99608.38;1891466;75;28146;-65
2021/12/21 14:21:37;;;;;;;2.65;2.45;;;;;;;19.87;38.14;99604.91;1896307;75;28192;-65
2021/12/21 14:24:28;;;;;;;4.25;2.60;;;;;;;19.88;38.10;99609.30;1867816;75;28125;-65
2021/12/21 14:27:19;;;;;;;3.20;2.42;;;;;;;19.86;38.12;99604.58;1872171;75;28150;-65
2021/12/21 14:30:16;;;;;;;2.45;2.27;;;;;;;19.87;38.12;99602.19;1881829;75;28151;-66
2021/12/21 14:33:28;;;;;;;3.02;2.40;;;;;;;19.93;38.06;99609.50;1893444;75;28097;-65
2021/12/21 14:36:15;;;;;;;3.15;2.80;;;;;;;19.88;38.01;99607.93;1890682;74;28249;-65
2021/12/21 14:39:07;;;;;;;3.27;2.37;;;;;;;19.87;38.06;99605.43;1890832;75;28106;-66
2021/12/21 14:41:58;;;;;;;2.85;2.60;;;;;;;19.88;38.06;99607.12;1868956;76;28164;-66
2021/12/21 14:44:54;;;;;;;2.90;2.40;;;;;;;19.87;38.07;99608.16;1871060;75;28150;-65
2021/12/21 14:47:42;;;;;;;3.30;2.50;;;;;;;19.86;38.06;99603.77;1901628;75;28061;-65
2021/12/21 14:50:38;;;;;;;3.23;2.27;;;;;;;19.87;38.03;99600.83;1879925;75;28626;-66
2021/12/21 14:53:29;;;;;;;3.00;2.70;;;;;;;19.90;38.00;99606.38;1881323;75;28327;-66
2021/12/21 14:56:34;;;;;;;3.10;2.80;;;;;;;19.88;38.05;99600.30;1871983;75;28047;-66
2021/12/21 14:59:34;;;;;;;3.92;2.40;;;;;;;19.87;38.02;99608.16;1871153;75;28024;-67
2021/12/21 15:03:11;;;;;;;2.95;2.75;;;;;;;19.84;38.14;99607.21;1867912;75;28047;-66
2021/12/21 15:05:17;;;;;;;2.73;2.50;;;;;;;19.84;38.11;99604.48;1877600;75;28089;-68
2021/12/21 15:08:10;;;;;;;3.20;2.50;;;;;;;19.83;38.10;99611.01;1879848;75;28262;-66
2021/12/21 15:10:59;;;;;;;2.55;2.35;;;;;;;19.84;38.10;99612.14;1901702;75;28039;-65
2021/12/21 15:13:48;;;;;;;3.33;2.60;;;;;;;19.82;38.11;99615.61;1870074;75;28012;-65
2021/12/21 15:16:37;;;;;;;2.72;2.40;;;;;;;19.83;38.08;99620.03;1882655;75;28244;-66
2021/12/21 15:19:25;;;;;;;2.80;2.40;;;;;;;19.85;38.08;99621.16;1878679;75;28081;-66
2021/12/21 15:22:13;;;;;;;2.70;2.50;;;;;;;19.83;38.09;99622.75;1873771;75;28616;-66
2021/12/21 15:25:02;;;;;;;2.80;2.50;;;;;;;19.81;38.11;99620.73;1890522;75;28235;-65
2021/12/21 15:27:52;;;;;;;4.15;2.65;;;;;;;19.83;38.08;99620.55;1878966;75;28171;-64
2021/12/21 15:30:40;;;;;;;3.33;2.40;;;;;;;19.82;38.06;99628.40;1868779;76;28228;-67
2021/12/21 15:33:29;;;;;;;2.83;2.62;;;;;;;19.80;38.11;99625.05;1856989;77;28170;-66
2021/12/21 15:36:17;;;;;;;3.20;2.30;;;;;;;19.79;38.10;99616.58;1864811;75;28099;-65
2021/12/21 15:39:07;;;;;;;3.05;2.75;;;;;;;19.80;38.10;99622.33;1879594;75;28116;-66
2021/12/21 15:41:56;;;;;;;2.67;2.47;;;;;;;19.81;38.09;99622.10;1870816;75;28194;-65
2021/12/21 15:44:53;;;;;;;2.65;2.37;;;;;;;19.82;38.08;99618.86;1869933;75;38446;-65
2021/12/21 15:47:42;;;;;;;2.60;2.40;;;;;;;19.82;38.04;99616.12;1892354;75;28149;-66
2021/12/21 15:50:33;;;;;;;3.10;2.67;;;;;;;19.79;38.09;99609.22;1890525;75;28150;-65
2021/12/21 15:53:21;;;;;;;2.87;2.67;;;;;;;19.81;38.04;99599.48;1877278;75;36240;-66
2021/12/21 15:56:12;;;;;;;2.72;2.50;;;;;;;19.82;37.99;99603.87;1875464;75;28188;-66
2021/12/21 15:59:00;;;;;;;2.65;2.45;;;;;;;19.80;37.98;99595.91;1878685;75;28254;-66
2021/12/21 16:01:48;;;;;;;2.97;2.63;;;;;;;19.78;38.07;99595.81;1881554;75;28209;-65
2021/12/21 16:04:37;;;;;;;2.80;2.50;;;;;;;19.80;38.02;99600.52;1870923;75;28182;-66
2021/12/21 16:07:27;;;;;;;2.77;2.58;;;;;;;19.79;38.02;99597.50;1869873;75;28080;-65
2021/12/21 16:10:16;;;;;;;2.50;2.30;;;;;;;19.76;38.02;99597.40;1881970;75;28105;-66
2021/12/21 16:13:04;;;;;;;2.83;2.62;;;;;;;19.76;38.03;99600.64;1879016;75;28046;-66
2021/12/21 16:15:54;;;;;;;2.80;2.60;;;;;;;19.75;38.05;99597.59;1875052;75;28023;-66
2021/12/21 16:18:43;;;;;;;2.60;2.40;;;;;;;19.78;38.07;99598.02;1881252;75;28138;-66
2021/12/21 16:21:32;;;;;;;2.50;2.30;;;;;;;19.74;38.01;99601.39;1895183;75;28224;-65
2021/12/21 16:24:22;;;;;;;2.70;2.50;;;;;;;19.75;38.03;99609.34;1857757;75;28258;-66
2021/12/21 16:27:11;;;;;;;3.77;2.50;;;;;;;19.75;38.01;99613.95;1872894;75;28187;-66
2021/12/21 16:30:08;;;;;;;3.22;2.50;;;;;;;19.74;38.06;99609.02;1868024;75;28153;-66
2021/12/21 16:32:57;;;;;;;2.50;2.30;;;;;;;19.74;38.05;99619.10;1881913;75;28115;-65
2021/12/21 16:35:47;;;;;;;2.50;2.30;;;;;;;19.71;38.10;99618.16;1878565;75;28117;-65
2021/12/21 16:38:35;;;;;;;2.67;2.47;;;;;;;19.68;38.10;99615.33;1883632;75;28219;-67
2021/12/21 16:41:24;;;;;;;2.70;2.50;;;;;;;19.71;38.11;99620.36;1896140;74;28065;-67
2021/12/21 16:44:12;;;;;;;3.15;2.47;;;;;;;19.72;38.07;99623.93;1911627;74;28182;-64
2021/12/21 16:47:02;;;;;;;2.30;2.20;;;;;;;19.75;38.01;99630.30;1906757;74;28536;-66
2021/12/21 16:49:50;;;;;;;2.50;2.30;;;;;;;19.72;38.03;99635.65;1901891;74;28128;-65
2021/12/21 16:52:38;;;;;;;2.70;2.50;;;;;;;19.71;38.00;99639.95;1906965;74;28111;-67
2021/12/21 16:55:27;;;;;;;2.35;2.22;;;;;;;19.69;38.06;99643.42;1888308;74;28211;-66
2021/12/21 16:58:23;;;;;;;2.83;2.63;;;;;;;19.75;38.19;99648.02;1917893;74;28046;-66
2021/12/21 17:01:10;;;;;;;2.80;2.55;;;;;;;19.75;38.19;99648.02;1902176;74;28243;-66
2021/12/21 17:03:59;;;;;;;2.70;2.50;;;;;;;19.72;37.98;99654.72;1906927;74;28151;-65
2021/12/21 17:06:47;;;;;;;2.92;2.62;;;;;;;19.69;37.99;99656.53;1907106;74;28129;-66
2021/12/21 17:09:36;;;;;;;3.37;2.60;;;;;;;19.74;37.93;99664.07;1904869;74;28024;-67
2021/12/21 17:12:24;;;;;;;3.10;2.60;;;;;;;19.74;37.99;99668.97;1898830;74;28090;-66
2021/12/21 17:15:14;;;;;;;2.67;2.47;;;;;;;19.71;37.97;99679.47;1909404;74;28218;-66
2021/12/21 17:18:02;;;;;;;3.05;2.77;;;;;;;19.68;37.98;99684.82;1887864;74;28235;-65
2021/12/21 17:20:51;;;;;;;2.83;2.40;;;;;;;19.70;38.02;99688.69;1917604;74;28176;-65
2021/12/21 17:23:39;;;;;;;3.10;2.80;;;;;;;19.68;37.99;99697.60;1898077;74;28043;-67
2021/12/21 17:26:28;;;;;;;3.20;2.60;;;;;;;19.68;37.99;99710.71;1910513;74;28190;-65
2021/12/21 17:29:17;;;;;;;2.50;2.40;;;;;;;19.67;37.96;99706.84;1906783;74;28152;-65
2021/12/21 17:32:06;;;;;;;2.95;2.75;;;;;;;19.66;38.01;99706.52;1901937;74;28124;-65
2021/12/21 17:34:56;;;;;;;2.90;2.67;;;;;;;19.64;38.09;99705.89;1877878;76;28122;-65
2021/12/21 17:37:48;;;;;;;2.72;2.52;;;;;;;19.67;38.01;99700.88;1905645;74;28159;-65
2021/12/21 17:40:38;;;;;;;2.67;2.40;;;;;;;19.66;37.96;99705.16;1913382;74;28084;-66
2021/12/21 17:43:25;;;;;;;2.75;2.55;;;;;;;19.68;37.93;99702.53;1884519;75;28198;-65
2021/12/21 17:46:13;;;;;;;2.40;2.30;;;;;;;19.69;37.97;99703.37;1895925;74;31567;-66
2021/12/21 17:49:03;;;;;;;2.72;2.52;;;;;;;19.67;37.95;99697.30;1911447;74;28182;-65
2021/12/21 17:51:52;;;;;;;2.50;2.35;;;;;;;19.70;37.89;99695.50;1906831;74;28107;-65
2021/12/21 17:54:40;;;;;;;3.10;2.52;;;;;;;19.67;37.86;99685.89;1900681;74;28070;-64
2021/12/21 17:57:29;;;;;;;2.60;2.40;;;;;;;19.71;37.85;99689.86;1895278;74;28078;-65
2021/12/21 18:00:19;;;;;;;3.15;2.70;;;;;;;19.69;37.84;99690.59;1895991;74;28163;-65
2021/12/21 18:03:08;;;;;;;3.50;2.75;;;;;;;19.69;37.83;99693.84;1896598;74;28113;-66
2021/12/21 18:05:57;;;;;;;3.27;2.97;;;;;;;19.67;37.83;99689.98;1884776;75;28187;-66
2021/12/21 18:08:45;;;;;;;2.90;2.70;;;;;;;19.67;37.86;99685.05;1893960;74;28181;-65
2021/12/21 18:11:34;;;;;;;3.10;2.80;;;;;;;19.68;37.82;99685.34;1895506;74;28246;-65
2021/12/21 18:14:22;;;;;;;2.83;2.62;;;;;;;19.65;37.86;99694.77;1897582;74;31139;-65
2021/12/21 18:17:11;;;;;;;4.35;3.47;;;;;;;19.66;37.81;99694.25;1884699;75;28218;-65
2021/12/21 18:19:59;;;;;;;3.10;2.80;;;;;;;19.65;37.52;99703.50;1915102;74;28134;-68
2021/12/21 18:22:48;;;;;;;4.00;3.03;;;;;;;19.66;37.40;99701.91;1911034;74;28065;-63
2021/12/21 18:25:37;;;;;;;3.67;3.05;;;;;;;19.64;37.43;99704.53;1890709;74;28150;-62
2021/12/21 18:28:26;;;;;;;3.85;2.70;;;;;;;19.64;37.45;99706.73;1903322;74;28174;-63
2021/12/21 18:31:14;;;;;;;4.37;2.90;;;;;;;19.66;37.52;99706.52;1897615;74;28154;-62
2021/12/21 18:34:03;;;;;;;4.58;2.98;;;;;;;19.64;37.55;99709.98;1894238;74;28204;-62
2021/12/21 18:36:52;;;;;;;3.30;3.00;;;;;;;19.62;37.60;99714.28;1864213;76;28053;-62
2021/12/21 18:39:40;;;;;;;3.42;2.92;;;;;;;19.63;37.59;99719.19;1827676;77;28362;-63
2021/12/21 18:42:29;;;;;;;3.00;2.72;;;;;;;19.64;37.60;99723.09;1831456;77;28223;-61
2021/12/21 18:45:18;;;;;;;3.00;2.80;;;;;;;19.65;37.60;99722.57;1814749;77;28258;-63
2021/12/21 18:48:07;;;;;;;3.00;2.80;;;;;;;19.69;37.57;99724.66;1824598;77;28281;-62
2021/12/21 18:50:55;;;;;;;2.80;2.60;;;;;;;19.68;37.58;99727.06;1835252;77;28300;-62
2021/12/21 18:53:43;;;;;;;2.97;2.77;;;;;;;19.67;37.62;99728.64;1830011;77;28301;-63
2021/12/21 18:56:31;;;;;;;3.17;2.80;;;;;;;19.69;37.62;99725.18;1813592;77;28337;-62
2021/12/21 18:59:24;;;;;;;3.17;2.98;;;;;;;19.67;37.64;99734.09;1820149;77;28517;-62
2021/12/21 19:02:11;;;;;;;3.27;2.98;;;;;;;19.67;37.59;99735.45;1875406;75;28125;-62
2021/12/21 19:05:00;;;;;;;3.05;2.80;;;;;;;19.65;37.63;99732.11;1887886;75;28113;-63
2021/12/21 19:07:49;;;;;;;3.00;2.80;;;;;;;19.69;37.67;99738.80;1882252;75;28535;-64
2021/12/21 19:10:39;;;;;;;3.83;3.40;;;;;;;19.68;37.68;99738.48;1874599;75;28125;-63
2021/12/21 19:13:28;;;;;;;3.75;2.95;;;;;;;19.69;37.63;99741.53;1865814;75;28815;-63
2021/12/21 19:16:17;;;;;;;3.33;2.80;;;;;;;19.67;37.72;99745.00;1891777;75;28138;-62
2021/12/21 19:19:06;;;;;;;3.10;2.80;;;;;;;19.68;37.64;99743.93;1867132;75;28240;-62
2021/12/21 19:21:55;;;;;;;3.83;2.97;;;;;;;19.68;37.64;99732.51;1866327;75;28165;-63
2021/12/21 19:24:43;;;;;;;3.20;2.90;;;;;;;19.68;37.71;99741.20;1877298;75;28247;-63
2021/12/21 19:27:32;;;;;;;3.02;2.83;;;;;;;19.70;37.67;99736.38;1879659;75;28563;-63
2021/12/21 19:30:22;;;;;;;2.92;2.72;;;;;;;19.67;37.69;99745.00;1872611;75;28008;-63
2021/12/21 19:33:11;;;;;;;3.10;2.77;;;;;;;19.67;37.71;99741.75;1875073;74;28097;-63
2021/12/21 19:36:01;;;;;;;3.42;2.90;;;;;;;19.69;37.71;99750.55;1812325;78;28303;-62
2021/12/21 19:38:50;;;;;;;3.87;3.05;;;;;;;19.69;37.70;99762.82;1841379;77;28122;-62
2021/12/21 19:41:39;;;;;;;3.30;2.93;;;;;;;19.68;37.69;99773.91;1825333;77;28235;-64
2021/12/21 19:44:28;;;;;;;3.98;3.33;;;;;;;19.67;37.76;99776.34;1882996;75;28234;-62
2021/12/21 19:47:17;;;;;;;3.30;3.00;;;;;;;19.66;37.74;99780.09;1883077;75;28161;-63
2021/12/21 19:50:08;;;;;;;3.30;3.10;;;;;;;19.67;37.77;99785.88;1890615;75;28121;-64
2021/12/21 19:52:57;;;;;;;3.47;3.20;;;;;;;19.66;37.74;99780.09;1885821;75;28147;-65
2021/12/21 19:55:45;;;;;;;4.47;3.50;;;;;;;19.69;37.78;99787.86;1887355;75;28091;-63
2021/12/21 19:58:38;;;;;;;4.15;3.30;;;;;;;19.72;37.75;99790.18;1881261;75;28166;-65
2021/12/21 20:01:25;;;;;;;3.30;3.10;;;;;;;19.68;37.75;99787.02;1876956;75;28168;-62
2021/12/21 20:04:13;;;;;;;3.22;2.92;;;;;;;19.69;37.75;99792.80;1883393;75;28150;-62
2021/12/21 20:07:02;;;;;;;5.53;3.10;;;;;;;19.71;37.80;99789.34;1879991;75;28092;-62
2021/12/21 20:09:50;;;;;;;3.62;3.27;;;;;;;19.69;37.76;99794.67;1885757;75;28102;-64
2021/12/21 20:12:41;;;;;;;3.50;3.20;;;;;;;19.70;37.79;99789.00;1879585;75;28611;-61
2021/12/21 20:15:29;;;;;;;4.17;3.10;;;;;;;19.67;37.85;99786.72;1876826;75;28057;-62
2021/12/21 20:18:19;;;;;;;4.17;2.80;;;;;;;19.66;37.91;99789.63;1877188;75;28110;-62